createdAt,value
2022-11-14T00:01:07.961Z,10.20
2022-11-14T00:03:36.189Z,9.60
2022-11-14T00:06:07.169Z,10.45
2022-11-14T00:08:35.500Z,10.30
2022-11-14T00:11:03.965Z,10.70
2022-11-14T00:13:32.188Z,10.48
2022-11-14T00:16:01.785Z,10.18
2022-11-14T00:18:30.499Z,10.15
2022-11-14T00:20:58.924Z,10.23
2022-11-14T00:23:27.208Z,10.15
2022-11-14T00:25:55.413Z,10.90
2022-11-14T00:28:23.667Z,11.05
2022-11-14T00:30:51.876Z,9.70
2022-11-14T00:33:22.228Z,10.80
2022-11-14T00:35:54.572Z,10.52
2022-11-14T00:38:23.079Z,10.67
2022-11-14T00:40:51.364Z,10.65
2022-11-14T00:43:19.661Z,10.30
2022-11-14T00:45:48.203Z,9.60
2022-11-14T00:48:16.522Z,9.70
2022-11-14T00:50:46.090Z,11.00
2022-11-14T00:53:14.404Z,10.00
2022-11-14T00:55:43.315Z,10.57
2022-11-14T00:58:11.615Z,10.48
2022-11-14T01:00:40.063Z,9.83
2022-11-14T01:03:08.393Z,10.50
2022-11-14T01:05:41.776Z,10.23
2022-11-14T01:08:11.640Z,10.07
2022-11-14T01:10:41.240Z,10.20
2022-11-14T01:13:09.640Z,10.68
2022-11-14T01:15:40.238Z,10.73
2022-11-14T01:18:08.438Z,10.43
2022-11-14T01:20:36.645Z,10.70
2022-11-14T01:23:04.866Z,9.65
2022-11-14T01:25:35.706Z,10.20
2022-11-14T01:28:04.247Z,9.70
2022-11-14T01:30:32.485Z,10.43
2022-11-14T01:33:00.767Z,9.60
2022-11-14T01:35:29.131Z,10.60
2022-11-14T01:37:57.390Z,10.43
2022-11-14T01:40:25.979Z,10.50
2022-11-14T01:43:13.044Z,9.90
2022-11-14T01:45:59.332Z,9.90
2022-11-14T01:48:32.635Z,9.30
2022-11-14T01:51:02.770Z,10.20
2022-11-14T01:53:31.220Z,9.87
2022-11-14T01:56:00.979Z,9.90
2022-11-14T01:58:29.889Z,10.43
2022-11-14T02:00:59.097Z,10.07
2022-11-14T02:03:27.428Z,10.65
2022-11-14T02:05:57.386Z,10.45
2022-11-14T02:08:26.200Z,10.07
2022-11-14T02:10:54.431Z,10.82
2022-11-14T02:13:22.721Z,10.73
2022-11-14T02:15:50.952Z,10.95
2022-11-14T02:18:19.200Z,10.70
2022-11-14T02:20:48.800Z,10.63
2022-11-14T02:23:20.605Z,11.23
2022-11-14T02:25:48.830Z,11.40
2022-11-14T02:28:17.277Z,10.20
2022-11-14T02:30:45.496Z,11.35
2022-11-14T02:33:13.739Z,10.38
2022-11-14T02:35:41.951Z,11.82
2022-11-14T02:38:11.612Z,10.60
2022-11-14T02:40:39.833Z,11.07
2022-11-14T02:43:08.107Z,11.07
2022-11-14T02:45:36.349Z,11.18
2022-11-14T02:48:04.652Z,11.20
2022-11-14T02:50:32.933Z,11.90
2022-11-14T02:53:01.192Z,12.10
2022-11-14T02:55:30.810Z,11.43
2022-11-14T02:57:59.041Z,12.90
2022-11-14T03:00:27.382Z,10.45
2022-11-14T03:02:55.704Z,11.00
2022-11-14T03:05:24.004Z,11.10
2022-11-14T03:07:55.376Z,12.35
2022-11-14T03:10:24.033Z,11.55
2022-11-14T03:12:56.139Z,11.15
2022-11-14T03:15:24.823Z,11.68
2022-11-14T03:17:53.187Z,12.35
2022-11-14T03:20:21.767Z,13.05
2022-11-14T03:22:50.002Z,13.60
2022-11-14T03:25:18.248Z,12.50
2022-11-14T03:27:46.512Z,12.80
2022-11-14T03:30:16.320Z,12.77
2022-11-14T03:32:44.583Z,14.15
2022-11-14T03:35:12.864Z,13.40
2022-11-14T03:37:41.247Z,13.48
2022-11-14T03:40:10.323Z,13.80
2022-11-14T03:42:38.542Z,14.80
2022-11-14T03:45:07.300Z,13.35
2022-11-14T03:47:36.881Z,13.52
2022-11-14T03:50:05.341Z,14.95
2022-11-14T03:52:33.569Z,14.80
2022-11-14T03:55:01.804Z,14.40
2022-11-14T03:57:30.051Z,14.63
2022-11-14T03:59:58.288Z,14.93
2022-11-14T04:02:26.553Z,13.95
2022-11-14T04:04:56.148Z,14.40
2022-11-14T04:07:24.593Z,15.45
2022-11-14T04:09:52.953Z,15.30
2022-11-14T04:12:21.195Z,15.48
2022-11-14T04:14:49.486Z,14.85
2022-11-14T04:17:17.773Z,16.30
2022-11-14T04:19:46.000Z,16.80
2022-11-14T04:22:15.619Z,15.77
2022-11-14T04:24:43.910Z,16.20
2022-11-14T04:27:12.299Z,16.23
2022-11-14T04:29:40.483Z,15.40
2022-11-14T04:32:08.724Z,16.40
2022-11-14T04:34:36.972Z,16.67
2022-11-14T04:37:05.270Z,17.38
2022-11-14T04:39:34.873Z,17.45
2022-11-14T04:42:03.107Z,16.67
2022-11-14T04:44:31.379Z,17.70
2022-11-14T04:46:59.608Z,17.10
2022-11-14T04:49:27.887Z,17.33
2022-11-14T04:51:56.162Z,17.80
2022-11-14T04:54:24.404Z,17.48
2022-11-14T04:56:53.989Z,17.98
2022-11-14T04:59:22.236Z,17.90
2022-11-14T05:01:50.473Z,17.80
2022-11-14T05:04:18.698Z,18.85
2022-11-14T05:06:46.993Z,18.73
2022-11-14T05:09:15.863Z,18.33
2022-11-14T05:11:44.086Z,19.05
2022-11-14T05:14:13.728Z,18.80
2022-11-14T05:16:42.017Z,19.42
2022-11-14T05:19:10.252Z,18.67
2022-11-14T05:21:38.487Z,19.20
2022-11-14T05:24:06.889Z,18.80
2022-11-14T05:26:35.130Z,19.45
2022-11-14T05:29:03.335Z,18.85
2022-11-14T05:31:32.967Z,20.37
2022-11-14T05:34:01.256Z,20.30
2022-11-14T05:36:29.463Z,19.33
2022-11-14T05:38:57.994Z,21.10
2022-11-14T05:41:26.248Z,19.27
2022-11-14T05:43:54.480Z,19.20
2022-11-14T05:46:22.708Z,20.77
2022-11-14T05:48:52.288Z,20.50
2022-11-14T05:51:20.530Z,19.05
2022-11-14T05:53:48.824Z,20.08
2022-11-14T05:56:17.034Z,20.00
2022-11-14T05:58:45.286Z,19.80
2022-11-14T06:01:14.329Z,20.05
2022-11-14T06:03:43.442Z,19.48
2022-11-14T06:06:13.695Z,19.90
2022-11-14T06:08:42.177Z,20.05
2022-11-14T06:11:11.324Z,20.13
2022-11-14T06:13:39.580Z,20.38
2022-11-14T06:16:09.021Z,20.30
2022-11-14T06:18:37.510Z,19.02
2022-11-14T06:21:06.678Z,19.55
2022-11-14T06:23:36.347Z,20.05
2022-11-14T06:26:05.792Z,20.67
2022-11-14T06:28:34.139Z,19.80
2022-11-14T06:31:02.814Z,18.98
2022-11-14T06:33:31.924Z,18.55
2022-11-14T06:36:00.487Z,19.25
2022-11-14T06:38:29.159Z,19.52
2022-11-14T06:41:04.526Z,17.92
2022-11-14T06:43:34.401Z,19.23
2022-11-14T06:46:02.759Z,19.98
2022-11-14T06:48:31.470Z,19.48
2022-11-14T06:51:00.809Z,17.77
2022-11-14T06:53:30.067Z,20.05
2022-11-14T06:55:59.013Z,20.33
2022-11-14T06:58:29.597Z,19.40
2022-11-14T07:00:58.230Z,19.90
2022-11-14T07:03:26.514Z,19.70
2022-11-14T07:05:54.811Z,19.15
2022-11-14T07:08:23.051Z,18.58
2022-11-14T07:10:51.299Z,20.38
2022-11-14T07:13:19.517Z,19.77
2022-11-14T07:15:55.523Z,18.80
2022-11-14T07:18:23.719Z,18.70
2022-11-14T07:20:51.975Z,19.30
2022-11-14T07:23:23.008Z,18.33
2022-11-14T07:25:51.484Z,18.63
2022-11-14T07:28:19.716Z,17.80
2022-11-14T07:30:47.987Z,18.13
2022-11-14T07:33:17.630Z,19.45
2022-11-14T07:35:45.896Z,18.48
2022-11-14T07:38:14.139Z,19.55
2022-11-14T07:40:42.343Z,20.13
2022-11-14T07:43:10.551Z,19.88
2022-11-14T07:45:38.805Z,20.40
2022-11-14T07:48:07.311Z,19.63
2022-11-14T07:50:36.964Z,18.92
2022-11-14T07:53:05.170Z,19.10
2022-11-14T07:55:33.395Z,18.52
2022-11-14T07:58:01.623Z,18.50
2022-11-14T08:00:30.099Z,19.55
2022-11-14T08:02:58.370Z,19.17
2022-11-14T08:05:26.624Z,19.40
2022-11-14T08:07:56.290Z,18.97
2022-11-14T08:10:24.532Z,18.60
2022-11-14T08:13:17.505Z,19.92
2022-11-14T08:15:48.197Z,19.13
2022-11-14T08:18:16.425Z,19.08
2022-11-14T08:20:44.981Z,18.85
2022-11-14T08:23:15.006Z,19.10
2022-11-14T08:25:43.456Z,19.90
2022-11-14T08:28:11.731Z,18.30
2022-11-14T08:30:39.986Z,17.02
2022-11-14T08:33:08.847Z,18.10
2022-11-14T08:35:37.059Z,18.02
2022-11-14T08:38:05.332Z,18.10
2022-11-14T08:40:34.953Z,18.55
2022-11-14T08:43:03.227Z,18.08
2022-11-14T08:45:31.516Z,18.00
2022-11-14T08:47:59.747Z,17.80
2022-11-14T08:50:28.026Z,18.25
2022-11-14T08:52:56.312Z,17.87
2022-11-14T08:55:24.583Z,17.80
2022-11-14T08:57:55.134Z,17.23
2022-11-14T09:00:23.858Z,17.40
2022-11-14T09:02:52.569Z,17.70
2022-11-14T09:05:21.439Z,16.85
2022-11-14T09:07:49.662Z,17.60
2022-11-14T09:10:17.910Z,17.67
2022-11-14T09:12:46.135Z,16.88
2022-11-14T09:15:15.735Z,16.50
2022-11-14T09:17:43.974Z,17.10
2022-11-14T09:20:12.209Z,17.23
2022-11-14T09:22:40.423Z,17.02
2022-11-14T09:25:09.383Z,16.38
2022-11-14T09:27:37.644Z,17.30
2022-11-14T09:30:06.545Z,16.55
2022-11-14T09:32:36.147Z,15.52
2022-11-14T09:35:04.379Z,17.00
2022-11-14T09:37:32.660Z,16.60
2022-11-14T09:40:00.932Z,15.77
2022-11-14T09:42:36.599Z,16.23
2022-11-14T09:45:07.251Z,15.48
2022-11-14T09:47:39.344Z,16.47
2022-11-14T09:50:09.941Z,16.00
2022-11-14T09:52:39.801Z,15.55
2022-11-14T09:55:13.138Z,15.90
2022-11-14T09:57:42.787Z,15.07
2022-11-14T10:00:14.897Z,16.00
2022-11-14T10:02:49.243Z,14.88
2022-11-14T10:05:31.395Z,15.50
2022-11-14T10:08:05.391Z,14.80
2022-11-14T10:10:39.461Z,16.17
2022-11-14T10:13:13.955Z,14.57
2022-11-14T10:15:44.719Z,15.13
2022-11-14T10:18:20.472Z,14.57
2022-11-14T10:20:50.872Z,15.50
2022-11-14T10:23:33.373Z,14.88
2022-11-14T10:26:09.432Z,13.82
2022-11-14T10:28:44.843Z,14.45
2022-11-14T10:31:18.492Z,13.93
2022-11-14T10:33:53.860Z,14.07
2022-11-14T10:36:26.156Z,13.35
2022-11-14T10:38:56.925Z,13.90
2022-11-14T10:41:57.096Z,13.20
2022-11-14T10:44:17.264Z,14.75
2022-11-14T10:46:49.273Z,13.20
2022-11-14T10:49:21.054Z,14.13
2022-11-14T10:51:52.293Z,13.18
2022-11-14T10:54:23.111Z,13.50
2022-11-14T10:56:52.492Z,12.60
2022-11-14T10:59:20.733Z,12.70
2022-11-14T11:01:55.603Z,12.80
2022-11-14T11:04:27.510Z,13.45
2022-11-14T11:06:57.120Z,12.38
2022-11-14T11:09:46.071Z,12.48
2022-11-14T11:12:17.558Z,13.50
2022-11-14T11:14:46.319Z,12.70
2022-11-14T11:17:19.714Z,12.35
2022-11-14T11:19:49.941Z,11.75
2022-11-14T11:22:38.111Z,12.02
2022-11-14T11:25:24.016Z,12.60
2022-11-14T11:28:06.072Z,11.75
2022-11-14T11:30:34.352Z,12.30
2022-11-14T11:33:16.820Z,12.23
2022-11-14T11:35:48.132Z,12.77
2022-11-14T11:38:16.779Z,12.00
2022-11-14T11:40:45.786Z,11.57
2022-11-14T11:43:37.777Z,11.60
2022-11-14T11:46:10.793Z,10.93
2022-11-14T11:48:40.046Z,11.50
2022-11-14T11:51:14.395Z,11.90
2022-11-14T11:53:44.426Z,11.13
2022-11-14T11:56:14.327Z,11.85
2022-11-14T11:58:45.164Z,12.03
2022-11-14T12:01:13.604Z,11.70
2022-11-14T12:03:43.443Z,11.30
2022-11-14T12:06:16.983Z,11.95
2022-11-14T12:08:48.904Z,11.75
2022-11-14T12:11:19.365Z,11.80
2022-11-14T12:13:54.296Z,12.23
2022-11-14T12:16:27.506Z,10.93
2022-11-14T12:19:26.085Z,11.20
2022-11-14T12:22:03.778Z,11.90
2022-11-14T12:24:48.433Z,10.65
2022-11-14T12:27:27.247Z,11.95
2022-11-14T12:30:06.130Z,11.60
2022-11-14T12:32:38.274Z,11.83
2022-11-14T12:35:08.508Z,11.63
2022-11-14T12:37:39.663Z,11.90
2022-11-14T12:40:09.267Z,11.35
2022-11-14T12:42:37.557Z,11.40
2022-11-14T12:45:06.083Z,11.80
2022-11-14T12:47:34.351Z,12.10
2022-11-14T12:50:06.389Z,11.40
2022-11-14T12:52:45.338Z,12.05
2022-11-14T12:55:32.512Z,11.13
2022-11-14T12:58:06.593Z,10.80
2022-11-14T13:00:35.707Z,11.85
2022-11-14T13:03:21.740Z,11.70
2022-11-14T13:05:57.214Z,11.80
2022-11-14T13:08:40.321Z,11.13
2022-11-14T13:11:52.665Z,11.73
2022-11-14T13:14:40.459Z,12.15
2022-11-14T13:17:30.128Z,11.95
2022-11-14T13:20:16.624Z,12.02
2022-11-14T13:22:45.397Z,12.57
2022-11-14T13:25:18.209Z,12.10
2022-11-14T13:28:06.687Z,12.27
2022-11-14T13:30:55.830Z,12.60
2022-11-14T13:33:38.985Z,12.82
2022-11-14T13:36:08.931Z,13.55
2022-11-14T13:39:01.317Z,13.95
2022-11-14T13:41:47.143Z,14.07
2022-11-14T13:44:22.812Z,13.63
2022-11-14T13:47:02.868Z,13.10
2022-11-14T13:49:36.529Z,14.27
2022-11-14T13:52:06.252Z,14.45
2022-11-14T13:54:34.519Z,15.52
2022-11-14T13:57:09.076Z,14.55
2022-11-14T13:59:46.242Z,15.45
2022-11-14T14:02:23.391Z,15.60
2022-11-14T14:04:57.560Z,16.10
2022-11-14T14:07:33.661Z,16.25
2022-11-14T14:10:05.184Z,17.20
2022-11-14T14:12:45.010Z,16.70
2022-11-14T14:15:20.201Z,16.80
2022-11-14T14:17:52.960Z,16.60
2022-11-14T14:20:30.567Z,17.60
2022-11-14T14:23:03.712Z,16.88
2022-11-14T14:25:36.088Z,17.30
2022-11-14T14:28:08.870Z,17.55
2022-11-14T14:30:37.113Z,15.93
2022-11-14T14:33:11.536Z,17.00
2022-11-14T14:35:41.085Z,17.17
2022-11-14T14:38:14.248Z,17.35
2022-11-14T14:40:43.911Z,17.63
2022-11-14T14:43:15.424Z,16.92
2022-11-14T14:45:47.172Z,18.40
2022-11-14T14:48:16.477Z,20.38
2022-11-14T14:50:49.575Z,21.00
2022-11-14T14:53:22.846Z,22.35
2022-11-14T14:55:55.350Z,23.38
2022-11-14T14:58:27.160Z,24.00
2022-11-14T15:00:57.614Z,25.10
2022-11-14T15:03:30.684Z,25.30
2022-11-14T15:06:02.027Z,28.40
2022-11-14T15:08:32.996Z,28.80
2022-11-14T15:11:02.309Z,29.83
2022-11-14T15:13:31.639Z,31.20
2022-11-14T15:15:59.974Z,31.07
2022-11-14T15:18:29.651Z,33.30
2022-11-14T15:21:16.899Z,31.80
2022-11-14T15:23:46.529Z,31.70
2022-11-14T15:26:16.361Z,34.90
2022-11-14T15:28:44.869Z,34.15
2022-11-14T15:31:20.595Z,34.95
2022-11-14T15:34:01.727Z,35.53
2022-11-14T15:36:29.966Z,34.55
2022-11-14T15:39:03.875Z,36.10
2022-11-14T15:41:32.844Z,36.70
2022-11-14T15:44:05.616Z,35.90
2022-11-14T15:46:51.980Z,37.03
2022-11-14T15:49:24.487Z,37.10
2022-11-14T15:51:54.116Z,34.30
2022-11-14T15:54:27.670Z,36.60
2022-11-14T15:56:56.608Z,34.73
2022-11-14T15:59:25.095Z,36.70
2022-11-14T16:01:54.611Z,36.08
2022-11-14T16:04:24.411Z,33.75
2022-11-14T16:06:52.768Z,34.20
2022-11-14T16:09:21.964Z,35.03
2022-11-14T16:11:51.571Z,34.90
2022-11-14T16:14:19.822Z,35.38
2022-11-14T16:16:48.113Z,32.90
2022-11-14T16:19:17.873Z,34.00
2022-11-14T16:21:46.081Z,32.67
2022-11-14T16:24:16.933Z,35.08
2022-11-14T16:26:45.122Z,33.42
2022-11-14T16:29:14.806Z,32.92
2022-11-14T16:31:43.298Z,32.65
2022-11-14T16:34:15.885Z,31.57
2022-11-14T16:36:45.913Z,32.05
2022-11-14T16:39:14.423Z,31.95
2022-11-14T16:41:42.712Z,30.67
2022-11-14T16:44:16.946Z,29.23
2022-11-14T16:46:45.443Z,28.33
2022-11-14T16:49:14.998Z,29.75
2022-11-14T16:51:48.880Z,29.55
2022-11-14T16:54:18.428Z,29.47
2022-11-14T16:56:46.811Z,27.83
2022-11-14T16:59:16.460Z,28.57
2022-11-14T17:01:44.797Z,28.08
2022-11-14T17:04:13.129Z,30.03
2022-11-14T17:06:41.410Z,30.10
2022-11-14T17:09:09.672Z,29.63
2022-11-14T17:11:37.927Z,29.58
2022-11-14T17:14:06.210Z,29.87
2022-11-14T17:16:35.793Z,29.10
2022-11-14T17:19:04.160Z,30.02
2022-11-14T17:21:32.719Z,29.50
2022-11-14T17:24:02.520Z,29.13
2022-11-14T17:26:31.099Z,29.27
2022-11-14T17:28:59.418Z,28.55
2022-11-14T17:31:27.690Z,26.90
2022-11-14T17:33:57.771Z,27.20
2022-11-14T17:36:26.511Z,26.90
2022-11-14T17:38:54.820Z,26.05
2022-11-14T17:41:23.240Z,25.30
2022-11-14T17:43:53.897Z,25.63
2022-11-14T17:46:22.152Z,25.13
2022-11-14T17:48:50.519Z,25.30
2022-11-14T17:51:20.715Z,24.58
2022-11-14T17:53:48.978Z,25.13
2022-11-14T17:56:18.451Z,25.45
2022-11-14T17:58:47.448Z,28.15
2022-11-14T18:01:16.667Z,31.65
2022-11-14T18:03:44.923Z,37.80
2022-11-14T18:06:14.248Z,39.20
2022-11-14T18:08:43.851Z,37.73
2022-11-14T18:11:12.924Z,35.15
2022-11-14T18:13:41.738Z,33.70
2022-11-14T18:16:10.923Z,33.13
2022-11-14T18:18:39.182Z,31.20
2022-11-14T18:21:08.589Z,30.38
2022-11-14T18:23:38.548Z,29.52
2022-11-14T18:26:11.987Z,28.63
2022-11-14T18:28:40.278Z,27.90
2022-11-14T18:31:10.803Z,28.50
2022-11-14T18:33:39.347Z,26.10
2022-11-14T18:36:09.352Z,26.23
2022-11-14T18:38:37.583Z,26.90
2022-11-14T18:41:09.252Z,24.60
2022-11-14T18:43:38.823Z,24.75
2022-11-14T18:46:08.080Z,25.63
2022-11-14T18:48:36.471Z,23.77
2022-11-14T18:51:05.262Z,23.25
2022-11-14T18:53:33.760Z,22.83
2022-11-14T18:56:05.145Z,24.00
2022-11-14T18:58:33.486Z,23.27
2022-11-14T19:01:10.717Z,22.33
2022-11-14T19:03:39.024Z,22.38
2022-11-14T19:06:07.903Z,21.70
2022-11-14T19:08:36.451Z,21.52
2022-11-14T19:11:05.088Z,21.63
2022-11-14T19:13:33.722Z,22.77
2022-11-14T19:16:03.032Z,21.00
2022-11-14T19:18:33.387Z,20.63
2022-11-14T19:21:02.432Z,20.27
2022-11-14T19:23:31.346Z,19.60
2022-11-14T19:26:00.824Z,20.70
2022-11-14T19:28:29.696Z,20.90
2022-11-14T19:31:02.248Z,20.00
2022-11-14T19:33:30.773Z,20.55
2022-11-14T19:36:06.031Z,20.30
2022-11-14T19:38:34.323Z,19.20
2022-11-14T19:41:07.294Z,19.75
2022-11-14T19:43:35.529Z,21.10
2022-11-14T19:46:04.475Z,20.97
2022-11-14T19:48:32.988Z,20.57
2022-11-14T19:51:03.475Z,20.05
2022-11-14T19:53:32.347Z,21.67
2022-11-14T19:56:01.882Z,21.42
2022-11-14T19:58:30.411Z,22.88
2022-11-14T20:01:02.526Z,22.88
2022-11-14T20:03:31.203Z,22.87
2022-11-14T20:05:59.718Z,24.83
2022-11-14T20:08:29.416Z,24.27
2022-11-14T20:10:58.598Z,24.17
2022-11-14T20:13:27.106Z,23.55
2022-11-14T20:15:55.520Z,23.88
2022-11-14T20:18:23.756Z,22.47
2022-11-14T20:20:51.948Z,23.23
2022-11-14T20:23:20.174Z,22.67
2022-11-14T20:25:53.983Z,24.33
2022-11-14T20:28:22.211Z,22.38
2022-11-14T20:30:50.524Z,22.77
2022-11-14T20:33:18.811Z,22.93
2022-11-14T20:35:47.136Z,22.70
2022-11-14T20:38:15.382Z,21.92
2022-11-14T20:40:43.610Z,21.48
2022-11-14T20:43:13.254Z,24.13
2022-11-14T20:45:41.517Z,22.30
2022-11-14T20:48:09.752Z,23.60
2022-11-14T20:50:38.013Z,23.60
2022-11-14T20:53:06.261Z,22.50
2022-11-14T20:55:34.485Z,23.20
2022-11-14T20:58:02.719Z,23.40
2022-11-14T21:00:32.290Z,22.92
2022-11-14T21:03:00.532Z,22.40
2022-11-14T21:05:28.744Z,23.73
2022-11-14T21:07:56.981Z,24.27
2022-11-14T21:10:43.007Z,23.58
2022-11-14T21:13:29.545Z,23.60
2022-11-14T21:15:59.713Z,23.02
2022-11-14T21:18:28.289Z,23.20
2022-11-14T21:21:00.724Z,23.27
2022-11-14T21:23:28.953Z,23.45
2022-11-14T21:26:08.057Z,23.13
2022-11-14T21:28:37.268Z,24.58
2022-11-14T21:31:15.791Z,23.83
2022-11-14T21:33:44.027Z,23.20
2022-11-14T21:36:38.121Z,22.80
2022-11-14T21:39:01.485Z,23.33
2022-11-14T21:41:30.637Z,23.77
2022-11-14T21:44:00.194Z,24.37
2022-11-14T21:46:30.586Z,26.08
2022-11-14T21:48:58.824Z,26.08
2022-11-14T21:51:27.937Z,25.92
2022-11-14T21:53:58.193Z,24.70
2022-11-14T21:56:27.621Z,23.63
2022-11-14T21:59:12.831Z,25.27
2022-11-14T22:02:00.993Z,25.40
2022-11-14T22:04:29.508Z,25.25
2022-11-14T22:06:57.835Z,24.45
2022-11-14T22:09:28.120Z,24.23
2022-11-14T22:11:56.697Z,25.10
2022-11-14T22:14:24.992Z,24.20
2022-11-14T22:16:54.592Z,25.75
2022-11-14T22:19:23.287Z,25.35
2022-11-14T22:21:51.561Z,25.83
2022-11-14T22:24:20.053Z,24.67
2022-11-14T22:26:48.325Z,24.95
2022-11-14T22:29:16.800Z,26.17
2022-11-14T22:31:45.193Z,24.65
2022-11-14T22:34:14.768Z,25.42
2022-11-14T22:36:42.983Z,25.97
2022-11-14T22:39:11.222Z,26.55
2022-11-14T22:41:39.480Z,27.17
2022-11-14T22:44:07.728Z,24.63
2022-11-14T22:46:35.943Z,24.83
2022-11-14T22:49:04.712Z,25.60
2022-11-14T22:51:34.273Z,26.47
2022-11-14T22:54:02.496Z,26.98
2022-11-14T22:56:31.080Z,27.48
2022-11-14T22:59:00.727Z,26.05
2022-11-14T23:01:29.600Z,26.98
2022-11-14T23:03:59.040Z,27.30
2022-11-14T23:06:27.357Z,25.73
2022-11-14T23:08:57.323Z,27.38
2022-11-14T23:11:26.363Z,27.77
2022-11-14T23:13:55.335Z,27.23
2022-11-14T23:16:24.713Z,27.58
2022-11-14T23:18:54.477Z,26.05
2022-11-14T23:21:23.972Z,26.63
2022-11-14T23:23:54.457Z,26.93
2022-11-14T23:26:24.426Z,26.50
2022-11-14T23:28:52.943Z,26.92
2022-11-14T23:31:21.237Z,27.70
2022-11-14T23:33:50.216Z,25.85
2022-11-14T23:36:18.546Z,26.60
2022-11-14T23:38:46.959Z,27.40
2022-11-14T23:41:17.100Z,28.00
2022-11-14T23:43:46.892Z,28.00
2022-11-14T23:46:15.412Z,29.58
2022-11-14T23:48:43.923Z,28.65
2022-11-14T23:51:13.629Z,26.95
2022-11-14T23:53:42.085Z,27.85
2022-11-14T23:56:12.228Z,28.47
2022-11-14T23:58:40.443Z,28.55
